Denby Dale, United Kingdom
Current Conditions -  °F | °C
As of 4:20 AM on Saturday 20 Dec 2014 (Local Time) from EGNM Reporting Station
Rain Showers Rain Showers  
Wind Chill: 33°   Ceiling: Unl
Heat Index: 43°   Visibility: 6mi
Dew Point: 37°   Wind: 26mph
Humidity: 81%   Direction: 270°W
Pressure: 29.97"   Gusts: 41mph
Location:  53.57°N, 1.66°W
Report Text: EGNM 200420Z 27023G36KT 240V310 9999 -SHRA SCT015 06/03 Q1015
Loading
Personal Weather Stations






























Interactive Weather Map New forecast layout! Learn more

10-Day Weather Forecast

Advertisements
Track Severe Weather on mobile